sensor_id;sensor_type;location;lat;lon;timestamp;temperature;humidity
19880;DHT22;10102;50.828;4.416;2023-08-20T00:01:28;22.60;99.90
19880;DHT22;10102;50.828;4.416;2023-08-20T00:03:55;22.70;99.90
19880;DHT22;10102;50.828;4.416;2023-08-20T00:06:22;22.50;99.90
19880;DHT22;10102;50.828;4.416;2023-08-20T00:08:49;22.30;99.90
19880;DHT22;10102;50.828;4.416;2023-08-20T00:11:15;22.40;99.90
19880;DHT22;10102;50.828;4.416;2023-08-20T00:13:41;22.40;99.90
19880;DHT22;10102;50.828;4.416;2023-08-20T00:16:08;22.40;99.90
19880;DHT22;10102;50.828;4.416;2023-08-20T00:18:35;22.10;99.90
19880;DHT22;10102;50.828;4.416;2023-08-20T00:21:01;22.20;99.90
19880;DHT22;10102;50.828;4.416;2023-08-20T00:23:27;22.10;99.90
19880;DHT22;10102;50.828;4.416;2023-08-20T00:25:54;22.30;99.90
19880;DHT22;10102;50.828;4.416;2023-08-20T00:28:21;22.30;99.90
19880;DHT22;10102;50.828;4.416;2023-08-20T00:30:46;22.40;99.90
19880;DHT22;10102;50.828;4.416;2023-08-20T00:33:12;22.20;99.90
19880;DHT22;10102;50.828;4.416;2023-08-20T00:35:39;22.10;99.90
19880;DHT22;10102;50.828;4.416;2023-08-20T00:38:06;22.20;99.90
19880;DHT22;10102;50.828;4.416;2023-08-20T00:42:58;22.10;99.90
19880;DHT22;10102;50.828;4.416;2023-08-20T00:45:24;22.30;99.90
19880;DHT22;10102;50.828;4.416;2023-08-20T00:47:50;22.20;99.90
19880;DHT22;10102;50.828;4.416;2023-08-20T00:50:17;22.20;99.90
19880;DHT22;10102;50.828;4.416;2023-08-20T00:52:44;22.20;99.90
19880;DHT22;10102;50.828;4.416;2023-08-20T00:55:11;22.10;99.90
19880;DHT22;10102;50.828;4.416;2023-08-20T00:57:39;22.10;99.90
19880;DHT22;10102;50.828;4.416;2023-08-20T01:00:06;22.20;99.90
19880;DHT22;10102;50.828;4.416;2023-08-20T01:02:37;22.40;99.90
19880;DHT22;10102;50.828;4.416;2023-08-20T01:05:05;22.20;99.90
19880;DHT22;10102;50.828;4.416;2023-08-20T01:07:57;22.10;99.90
19880;DHT22;10102;50.828;4.416;2023-08-20T01:10:39;22.00;99.90
19880;DHT22;10102;50.828;4.416;2023-08-20T01:13:07;22.10;99.90
19880;DHT22;10102;50.828;4.416;2023-08-20T01:15:33;22.00;99.90
19880;DHT22;10102;50.828;4.416;2023-08-20T01:17:59;22.00;99.90
19880;DHT22;10102;50.828;4.416;2023-08-20T01:20:28;22.00;99.90
19880;DHT22;10102;50.828;4.416;2023-08-20T01:23:14;22.00;99.90
19880;DHT22;10102;50.828;4.416;2023-08-20T01:26:12;22.20;99.90
19880;DHT22;10102;50.828;4.416;2023-08-20T01:28:41;22.10;99.90
19880;DHT22;10102;50.828;4.416;2023-08-20T01:31:07;21.90;99.90
19880;DHT22;10102;50.828;4.416;2023-08-20T01:33:34;21.90;99.90
19880;DHT22;10102;50.828;4.416;2023-08-20T01:36:00;22.00;99.90
19880;DHT22;10102;50.828;4.416;2023-08-20T01:38:26;22.20;99.90
19880;DHT22;10102;50.828;4.416;2023-08-20T01:40:52;22.20;99.90
19880;DHT22;10102;50.828;4.416;2023-08-20T01:43:18;22.40;99.90
19880;DHT22;10102;50.828;4.416;2023-08-20T01:45:45;22.20;99.90
19880;DHT22;10102;50.828;4.416;2023-08-20T01:48:11;22.20;99.90
19880;DHT22;10102;50.828;4.416;2023-08-20T01:50:37;22.40;99.90
19880;DHT22;10102;50.828;4.416;2023-08-20T01:53:03;22.20;99.90
19880;DHT22;10102;50.828;4.416;2023-08-20T01:55:29;22.40;99.90
19880;DHT22;10102;50.828;4.416;2023-08-20T01:57:54;22.40;99.90
19880;DHT22;10102;50.828;4.416;2023-08-20T02:00:20;22.40;99.90
19880;DHT22;10102;50.828;4.416;2023-08-20T02:02:46;22.20;99.90
19880;DHT22;10102;50.828;4.416;2023-08-20T02:05:12;22.10;99.90
19880;DHT22;10102;50.828;4.416;2023-08-20T02:07:38;22.20;99.90
19880;DHT22;10102;50.828;4.416;2023-08-20T02:10:04;22.10;99.90
19880;DHT22;10102;50.828;4.416;2023-08-20T02:12:30;22.10;99.90
19880;DHT22;10102;50.828;4.416;2023-08-20T02:14:56;22.10;99.90
19880;DHT22;10102;50.828;4.416;2023-08-20T02:17:22;21.80;99.90
19880;DHT22;10102;50.828;4.416;2023-08-20T02:19:49;21.90;99.90
19880;DHT22;10102;50.828;4.416;2023-08-20T02:24:41;21.80;99.90
19880;DHT22;10102;50.828;4.416;2023-08-20T02:27:06;21.60;99.90
19880;DHT22;10102;50.828;4.416;2023-08-20T02:29:32;21.50;99.90
19880;DHT22;10102;50.828;4.416;2023-08-20T02:31:58;21.80;99.90
19880;DHT22;10102;50.828;4.416;2023-08-20T02:34:24;21.30;99.90
19880;DHT22;10102;50.828;4.416;2023-08-20T02:36:50;21.40;99.90
19880;DHT22;10102;50.828;4.416;2023-08-20T02:39:16;21.60;99.90
19880;DHT22;10102;50.828;4.416;2023-08-20T02:41:42;21.80;99.90
19880;DHT22;10102;50.828;4.416;2023-08-20T02:44:08;21.50;99.90
19880;DHT22;10102;50.828;4.416;2023-08-20T02:49:00;21.20;99.90
19880;DHT22;10102;50.828;4.416;2023-08-20T02:51:26;21.30;99.90
19880;DHT22;10102;50.828;4.416;2023-08-20T02:53:52;21.30;99.90
19880;DHT22;10102;50.828;4.416;2023-08-20T02:56:18;21.10;99.90
19880;DHT22;10102;50.828;4.416;2023-08-20T02:58:44;21.10;99.90
19880;DHT22;10102;50.828;4.416;2023-08-20T03:01:23;21.10;99.90
19880;DHT22;10102;50.828;4.416;2023-08-20T03:03:49;20.90;99.90
19880;DHT22;10102;50.828;4.416;2023-08-20T03:06:15;21.00;99.90
19880;DHT22;10102;50.828;4.416;2023-08-20T03:08:41;21.00;99.90
19880;DHT22;10102;50.828;4.416;2023-08-20T03:11:07;20.90;99.90
19880;DHT22;10102;50.828;4.416;2023-08-20T03:13:33;20.80;99.90
19880;DHT22;10102;50.828;4.416;2023-08-20T03:15:59;20.80;99.90
19880;DHT22;10102;50.828;4.416;2023-08-20T03:18:25;20.80;99.90
19880;DHT22;10102;50.828;4.416;2023-08-20T03:20:51;20.70;99.90
19880;DHT22;10102;50.828;4.416;2023-08-20T03:23:16;20.70;99.90
19880;DHT22;10102;50.828;4.416;2023-08-20T03:25:42;20.60;99.90
19880;DHT22;10102;50.828;4.416;2023-08-20T03:28:08;20.30;99.90
19880;DHT22;10102;50.828;4.416;2023-08-20T03:30:34;20.90;99.90
19880;DHT22;10102;50.828;4.416;2023-08-20T03:33:01;20.50;99.90
19880;DHT22;10102;50.828;4.416;2023-08-20T03:35:27;20.30;99.90
19880;DHT22;10102;50.828;4.416;2023-08-20T03:37:54;20.30;99.90
19880;DHT22;10102;50.828;4.416;2023-08-20T03:40:20;20.30;99.90
19880;DHT22;10102;50.828;4.416;2023-08-20T03:42:46;20.30;99.90
19880;DHT22;10102;50.828;4.416;2023-08-20T03:45:12;20.30;99.90
19880;DHT22;10102;50.828;4.416;2023-08-20T03:47:37;20.10;99.90
19880;DHT22;10102;50.828;4.416;2023-08-20T03:50:04;20.10;99.90
19880;DHT22;10102;50.828;4.416;2023-08-20T03:52:30;20.10;99.90
19880;DHT22;10102;50.828;4.416;2023-08-20T03:54:56;20.10;99.90
19880;DHT22;10102;50.828;4.416;2023-08-20T03:57:22;20.40;99.90
19880;DHT22;10102;50.828;4.416;2023-08-20T03:59:48;20.30;99.90
19880;DHT22;10102;50.828;4.416;2023-08-20T04:02:14;19.60;99.90
19880;DHT22;10102;50.828;4.416;2023-08-20T04:04:40;19.80;99.90
19880;DHT22;10102;50.828;4.416;2023-08-20T04:07:06;19.90;99.90
19880;DHT22;10102;50.828;4.416;2023-08-20T04:09:33;20.10;99.90
19880;DHT22;10102;50.828;4.416;2023-08-20T04:11:59;20.00;99.90
19880;DHT22;10102;50.828;4.416;2023-08-20T04:14:25;20.00;99.90
19880;DHT22;10102;50.828;4.416;2023-08-20T04:16:51;20.00;99.90
19880;DHT22;10102;50.828;4.416;2023-08-20T04:19:16;20.10;99.90
19880;DHT22;10102;50.828;4.416;2023-08-20T04:21:42;20.00;99.90
19880;DHT22;10102;50.828;4.416;2023-08-20T04:24:08;20.10;99.90
19880;DHT22;10102;50.828;4.416;2023-08-20T04:26:34;20.00;99.90
19880;DHT22;10102;50.828;4.416;2023-08-20T04:29:00;20.10;99.90
19880;DHT22;10102;50.828;4.416;2023-08-20T04:31:27;20.20;99.90
19880;DHT22;10102;50.828;4.416;2023-08-20T04:33:54;20.10;99.90
19880;DHT22;10102;50.828;4.416;2023-08-20T04:36:20;19.90;99.90
19880;DHT22;10102;50.828;4.416;2023-08-20T04:38:46;20.00;99.90
19880;DHT22;10102;50.828;4.416;2023-08-20T04:41:11;20.00;99.90
19880;DHT22;10102;50.828;4.416;2023-08-20T04:43:37;20.00;99.90
19880;DHT22;10102;50.828;4.416;2023-08-20T04:46:03;20.10;99.90
19880;DHT22;10102;50.828;4.416;2023-08-20T04:48:29;20.20;99.90
19880;DHT22;10102;50.828;4.416;2023-08-20T04:50:55;20.20;99.90
19880;DHT22;10102;50.828;4.416;2023-08-20T04:53:20;20.10;99.90
19880;DHT22;10102;50.828;4.416;2023-08-20T04:55:46;20.10;99.90
19880;DHT22;10102;50.828;4.416;2023-08-20T04:58:12;20.00;99.90
19880;DHT22;10102;50.828;4.416;2023-08-20T05:00:38;20.00;99.90
19880;DHT22;10102;50.828;4.416;2023-08-20T05:03:04;20.00;99.90
19880;DHT22;10102;50.828;4.416;2023-08-20T05:05:30;19.90;99.90
19880;DHT22;10102;50.828;4.416;2023-08-20T05:07:56;19.90;99.90
19880;DHT22;10102;50.828;4.416;2023-08-20T05:10:22;19.70;99.90
19880;DHT22;10102;50.828;4.416;2023-08-20T05:15:14;19.70;99.90
19880;DHT22;10102;50.828;4.416;2023-08-20T05:17:40;20.00;99.90
19880;DHT22;10102;50.828;4.416;2023-08-20T05:20:06;19.90;99.90
19880;DHT22;10102;50.828;4.416;2023-08-20T05:22:32;20.00;99.90
19880;DHT22;10102;50.828;4.416;2023-08-20T05:24:57;20.00;99.90
19880;DHT22;10102;50.828;4.416;2023-08-20T05:27:23;20.10;99.90
19880;DHT22;10102;50.828;4.416;2023-08-20T05:29:49;20.10;99.90
19880;DHT22;10102;50.828;4.416;2023-08-20T05:32:15;20.00;99.90
19880;DHT22;10102;50.828;4.416;2023-08-20T05:34:42;19.90;99.90
19880;DHT22;10102;50.828;4.416;2023-08-20T05:37:08;20.10;99.90
19880;DHT22;10102;50.828;4.416;2023-08-20T05:39:40;20.10;99.90
19880;DHT22;10102;50.828;4.416;2023-08-20T05:42:06;20.10;99.90
19880;DHT22;10102;50.828;4.416;2023-08-20T05:44:32;20.20;99.90
19880;DHT22;10102;50.828;4.416;2023-08-20T05:46:58;20.30;99.90
19880;DHT22;10102;50.828;4.416;2023-08-20T05:49:24;20.00;99.90
19880;DHT22;10102;50.828;4.416;2023-08-20T05:51:50;20.10;99.90
19880;DHT22;10102;50.828;4.416;2023-08-20T05:54:16;20.50;99.90
19880;DHT22;10102;50.828;4.416;2023-08-20T05:56:42;20.60;99.90
19880;DHT22;10102;50.828;4.416;2023-08-20T05:59:07;20.60;99.90
19880;DHT22;10102;50.828;4.416;2023-08-20T06:01:33;20.50;99.90
19880;DHT22;10102;50.828;4.416;2023-08-20T06:03:59;20.40;99.90
19880;DHT22;10102;50.828;4.416;2023-08-20T06:06:26;20.50;99.90
19880;DHT22;10102;50.828;4.416;2023-08-20T06:08:52;20.40;99.90
19880;DHT22;10102;50.828;4.416;2023-08-20T06:11:19;20.60;99.90
19880;DHT22;10102;50.828;4.416;2023-08-20T06:13:45;20.60;99.90
19880;DHT22;10102;50.828;4.416;2023-08-20T06:16:10;20.80;99.90
19880;DHT22;10102;50.828;4.416;2023-08-20T06:18:36;20.90;99.90
19880;DHT22;10102;50.828;4.416;2023-08-20T06:21:03;20.70;99.90
19880;DHT22;10102;50.828;4.416;2023-08-20T06:23:29;20.80;99.90
19880;DHT22;10102;50.828;4.416;2023-08-20T06:25:55;21.00;99.90
19880;DHT22;10102;50.828;4.416;2023-08-20T06:28:21;21.20;99.90
19880;DHT22;10102;50.828;4.416;2023-08-20T06:30:47;21.10;99.90
19880;DHT22;10102;50.828;4.416;2023-08-20T06:33:13;21.10;99.90
19880;DHT22;10102;50.828;4.416;2023-08-20T06:35:39;21.10;99.90
19880;DHT22;10102;50.828;4.416;2023-08-20T06:38:05;21.40;99.90
19880;DHT22;10102;50.828;4.416;2023-08-20T06:40:31;21.30;99.90
19880;DHT22;10102;50.828;4.416;2023-08-20T06:42:57;21.40;99.90
19880;DHT22;10102;50.828;4.416;2023-08-20T06:45:23;21.60;99.90
19880;DHT22;10102;50.828;4.416;2023-08-20T06:47:49;21.50;99.90
19880;DHT22;10102;50.828;4.416;2023-08-20T06:50:14;21.50;99.90
19880;DHT22;10102;50.828;4.416;2023-08-20T06:52:40;21.70;99.90
19880;DHT22;10102;50.828;4.416;2023-08-20T06:55:06;21.90;99.90
19880;DHT22;10102;50.828;4.416;2023-08-20T06:57:32;22.00;99.90
19880;DHT22;10102;50.828;4.416;2023-08-20T06:59:58;22.00;99.90
19880;DHT22;10102;50.828;4.416;2023-08-20T07:04:50;22.10;99.90
19880;DHT22;10102;50.828;4.416;2023-08-20T07:07:16;22.30;99.90
19880;DHT22;10102;50.828;4.416;2023-08-20T07:09:41;22.50;99.90
19880;DHT22;10102;50.828;4.416;2023-08-20T07:12:07;22.40;99.90
19880;DHT22;10102;50.828;4.416;2023-08-20T07:14:33;22.80;99.90
19880;DHT22;10102;50.828;4.416;2023-08-20T07:16:59;22.60;99.90
19880;DHT22;10102;50.828;4.416;2023-08-20T07:19:25;22.70;99.90
19880;DHT22;10102;50.828;4.416;2023-08-20T07:21:51;19.60;99.90
19880;DHT22;10102;50.828;4.416;2023-08-20T07:24:17;23.00;99.90
19880;DHT22;10102;50.828;4.416;2023-08-20T07:26:43;23.10;99.90
19880;DHT22;10102;50.828;4.416;2023-08-20T07:29:09;23.00;99.90
19880;DHT22;10102;50.828;4.416;2023-08-20T07:31:35;23.10;99.90
19880;DHT22;10102;50.828;4.416;2023-08-20T07:34:02;23.00;99.90
19880;DHT22;10102;50.828;4.416;2023-08-20T07:36:29;23.10;99.90
19880;DHT22;10102;50.828;4.416;2023-08-20T07:38:55;23.40;99.90
19880;DHT22;10102;50.828;4.416;2023-08-20T07:41:22;23.40;99.90
19880;DHT22;10102;50.828;4.416;2023-08-20T07:43:48;23.50;99.90
19880;DHT22;10102;50.828;4.416;2023-08-20T07:46:15;23.40;99.90
19880;DHT22;10102;50.828;4.416;2023-08-20T07:48:41;23.40;99.90
19880;DHT22;10102;50.828;4.416;2023-08-20T07:51:07;23.60;99.90
19880;DHT22;10102;50.828;4.416;2023-08-20T07:53:34;23.40;99.90
19880;DHT22;10102;50.828;4.416;2023-08-20T07:56:03;23.80;99.90
19880;DHT22;10102;50.828;4.416;2023-08-20T07:58:29;23.90;99.90
19880;DHT22;10102;50.828;4.416;2023-08-20T08:00:55;23.70;99.90
19880;DHT22;10102;50.828;4.416;2023-08-20T08:03:24;23.70;99.90
19880;DHT22;10102;50.828;4.416;2023-08-20T08:05:50;23.90;99.90
19880;DHT22;10102;50.828;4.416;2023-08-20T08:08:17;24.20;99.90
19880;DHT22;10102;50.828;4.416;2023-08-20T08:10:44;24.20;99.90
19880;DHT22;10102;50.828;4.416;2023-08-20T08:13:14;24.40;99.90
19880;DHT22;10102;50.828;4.416;2023-08-20T08:15:40;24.30;99.90
19880;DHT22;10102;50.828;4.416;2023-08-20T08:18:07;24.50;99.90
19880;DHT22;10102;50.828;4.416;2023-08-20T08:20:34;24.50;99.90
19880;DHT22;10102;50.828;4.416;2023-08-20T08:23:00;24.50;99.90
19880;DHT22;10102;50.828;4.416;2023-08-20T08:25:26;24.50;99.90
19880;DHT22;10102;50.828;4.416;2023-08-20T08:27:52;24.60;99.90
19880;DHT22;10102;50.828;4.416;2023-08-20T08:30:18;24.80;99.90
19880;DHT22;10102;50.828;4.416;2023-08-20T08:32:44;24.70;99.90
19880;DHT22;10102;50.828;4.416;2023-08-20T08:35:10;24.70;99.90
19880;DHT22;10102;50.828;4.416;2023-08-20T08:37:36;24.70;99.90
19880;DHT22;10102;50.828;4.416;2023-08-20T08:40:03;24.70;99.90
19880;DHT22;10102;50.828;4.416;2023-08-20T08:42:33;24.60;99.90
19880;DHT22;10102;50.828;4.416;2023-08-20T08:45:02;24.80;99.90
19880;DHT22;10102;50.828;4.416;2023-08-20T08:47:29;24.90;99.90
19880;DHT22;10102;50.828;4.416;2023-08-20T08:49:56;24.90;99.90
19880;DHT22;10102;50.828;4.416;2023-08-20T08:52:25;25.20;99.90
19880;DHT22;10102;50.828;4.416;2023-08-20T08:54:52;25.20;99.90
19880;DHT22;10102;50.828;4.416;2023-08-20T08:57:18;25.20;99.90
19880;DHT22;10102;50.828;4.416;2023-08-20T08:59:45;25.20;99.90
19880;DHT22;10102;50.828;4.416;2023-08-20T09:02:12;25.30;99.90
19880;DHT22;10102;50.828;4.416;2023-08-20T09:04:42;25.10;99.90
19880;DHT22;10102;50.828;4.416;2023-08-20T09:07:13;25.00;99.90
19880;DHT22;10102;50.828;4.416;2023-08-20T09:09:43;25.10;99.90
19880;DHT22;10102;50.828;4.416;2023-08-20T09:12:20;25.00;99.90
19880;DHT22;10102;50.828;4.416;2023-08-20T09:14:47;25.00;99.90
19880;DHT22;10102;50.828;4.416;2023-08-20T09:17:14;25.30;99.90
19880;DHT22;10102;50.828;4.416;2023-08-20T09:19:43;25.40;99.90
19880;DHT22;10102;50.828;4.416;2023-08-20T09:22:12;25.50;99.90
19880;DHT22;10102;50.828;4.416;2023-08-20T09:24:46;25.70;99.90
19880;DHT22;10102;50.828;4.416;2023-08-20T09:27:13;25.80;99.90
19880;DHT22;10102;50.828;4.416;2023-08-20T09:29:46;26.10;99.90
19880;DHT22;10102;50.828;4.416;2023-08-20T09:32:23;26.00;99.90
19880;DHT22;10102;50.828;4.416;2023-08-20T09:34:50;26.00;99.90
19880;DHT22;10102;50.828;4.416;2023-08-20T09:37:22;26.00;99.90
19880;DHT22;10102;50.828;4.416;2023-08-20T09:39:48;26.10;99.90
19880;DHT22;10102;50.828;4.416;2023-08-20T09:42:14;26.00;99.90
19880;DHT22;10102;50.828;4.416;2023-08-20T09:44:42;26.20;99.90
19880;DHT22;10102;50.828;4.416;2023-08-20T09:47:10;26.40;99.90
19880;DHT22;10102;50.828;4.416;2023-08-20T09:49:47;26.60;99.90
19880;DHT22;10102;50.828;4.416;2023-08-20T09:52:22;26.80;99.90
19880;DHT22;10102;50.828;4.416;2023-08-20T09:55:00;26.90;99.90
19880;DHT22;10102;50.828;4.416;2023-08-20T09:57:37;27.10;99.90
19880;DHT22;10102;50.828;4.416;2023-08-20T10:00:04;27.00;99.90
19880;DHT22;10102;50.828;4.416;2023-08-20T10:02:38;27.10;99.90
19880;DHT22;10102;50.828;4.416;2023-08-20T10:05:05;27.10;99.90
19880;DHT22;10102;50.828;4.416;2023-08-20T10:07:32;27.10;99.90
19880;DHT22;10102;50.828;4.416;2023-08-20T10:10:01;27.20;99.90
19880;DHT22;10102;50.828;4.416;2023-08-20T10:12:28;27.30;99.90
19880;DHT22;10102;50.828;4.416;2023-08-20T10:14:57;27.60;99.90
19880;DHT22;10102;50.828;4.416;2023-08-20T10:17:24;27.50;99.90
19880;DHT22;10102;50.828;4.416;2023-08-20T10:19:53;27.60;99.90
19880;DHT22;10102;50.828;4.416;2023-08-20T10:22:19;27.70;99.90
19880;DHT22;10102;50.828;4.416;2023-08-20T10:24:52;27.80;99.90
19880;DHT22;10102;50.828;4.416;2023-08-20T10:27:30;27.80;99.90
19880;DHT22;10102;50.828;4.416;2023-08-20T10:29:58;27.80;99.90
19880;DHT22;10102;50.828;4.416;2023-08-20T10:32:53;28.00;99.90
19880;DHT22;10102;50.828;4.416;2023-08-20T10:35:25;28.10;99.90
19880;DHT22;10102;50.828;4.416;2023-08-20T10:38:14;28.20;99.90
19880;DHT22;10102;50.828;4.416;2023-08-20T10:40:56;28.30;99.90
19880;DHT22;10102;50.828;4.416;2023-08-20T10:43:34;28.30;99.90
19880;DHT22;10102;50.828;4.416;2023-08-20T10:46:07;28.20;99.90
19880;DHT22;10102;50.828;4.416;2023-08-20T10:48:34;28.10;99.90
19880;DHT22;10102;50.828;4.416;2023-08-20T10:51:33;28.20;99.90
19880;DHT22;10102;50.828;4.416;2023-08-20T10:54:08;28.30;99.90
19880;DHT22;10102;50.828;4.416;2023-08-20T10:56:55;28.20;99.90
19880;DHT22;10102;50.828;4.416;2023-08-20T10:59:29;28.40;99.90
19880;DHT22;10102;50.828;4.416;2023-08-20T11:01:57;28.60;99.90
19880;DHT22;10102;50.828;4.416;2023-08-20T11:04:27;28.90;99.90
19880;DHT22;10102;50.828;4.416;2023-08-20T11:06:55;29.50;99.90
19880;DHT22;10102;50.828;4.416;2023-08-20T11:09:22;29.90;99.90
19880;DHT22;10102;50.828;4.416;2023-08-20T11:11:49;30.50;99.90
19880;DHT22;10102;50.828;4.416;2023-08-20T11:14:17;31.40;99.90
19880;DHT22;10102;50.828;4.416;2023-08-20T11:16:43;32.50;99.90
19880;DHT22;10102;50.828;4.416;2023-08-20T11:19:10;34.70;99.90
19880;DHT22;10102;50.828;4.416;2023-08-20T11:21:42;36.50;99.90
19880;DHT22;10102;50.828;4.416;2023-08-20T11:24:09;38.30;97.00
19880;DHT22;10102;50.828;4.416;2023-08-20T11:26:38;39.10;91.80
19880;DHT22;10102;50.828;4.416;2023-08-20T11:29:08;39.70;89.50
19880;DHT22;10102;50.828;4.416;2023-08-20T11:31:36;39.70;86.70
19880;DHT22;10102;50.828;4.416;2023-08-20T11:34:02;40.70;82.80
19880;DHT22;10102;50.828;4.416;2023-08-20T11:36:28;41.80;80.50
19880;DHT22;10102;50.828;4.416;2023-08-20T11:38:55;42.20;76.90
19880;DHT22;10102;50.828;4.416;2023-08-20T11:41:21;43.10;73.20
19880;DHT22;10102;50.828;4.416;2023-08-20T11:43:48;44.60;70.50
19880;DHT22;10102;50.828;4.416;2023-08-20T11:46:16;45.40;66.00
19880;DHT22;10102;50.828;4.416;2023-08-20T11:49:04;46.20;63.20
19880;DHT22;10102;50.828;4.416;2023-08-20T11:51:36;47.10;60.00
19880;DHT22;10102;50.828;4.416;2023-08-20T11:54:05;47.30;59.30
19880;DHT22;10102;50.828;4.416;2023-08-20T11:56:33;48.70;57.40
19880;DHT22;10102;50.828;4.416;2023-08-20T11:59:00;49.40;56.00
19880;DHT22;10102;50.828;4.416;2023-08-20T12:01:30;50.40;54.40
19880;DHT22;10102;50.828;4.416;2023-08-20T12:04:00;50.70;53.10
19880;DHT22;10102;50.828;4.416;2023-08-20T12:06:27;50.40;52.80
19880;DHT22;10102;50.828;4.416;2023-08-20T12:08:56;49.80;52.30
19880;DHT22;10102;50.828;4.416;2023-08-20T12:11:27;48.00;52.20
19880;DHT22;10102;50.828;4.416;2023-08-20T12:13:54;47.70;53.30
19880;DHT22;10102;50.828;4.416;2023-08-20T12:16:24;46.80;54.20
19880;DHT22;10102;50.828;4.416;2023-08-20T12:18:51;47.20;54.20
19880;DHT22;10102;50.828;4.416;2023-08-20T12:21:18;48.20;54.00
19880;DHT22;10102;50.828;4.416;2023-08-20T12:23:44;49.50;52.40
19880;DHT22;10102;50.828;4.416;2023-08-20T12:26:09;50.80;50.50
19880;DHT22;10102;50.828;4.416;2023-08-20T12:28:35;51.10;49.90
19880;DHT22;10102;50.828;4.416;2023-08-20T12:31:01;51.60;49.20
19880;DHT22;10102;50.828;4.416;2023-08-20T12:33:28;52.60;48.30
19880;DHT22;10102;50.828;4.416;2023-08-20T12:35:55;53.60;47.40
19880;DHT22;10102;50.828;4.416;2023-08-20T12:38:21;54.60;47.00
19880;DHT22;10102;50.828;4.416;2023-08-20T12:40:48;53.00;46.00
19880;DHT22;10102;50.828;4.416;2023-08-20T12:43:14;48.30;50.00
19880;DHT22;10102;50.828;4.416;2023-08-20T12:45:40;46.50;53.00
19880;DHT22;10102;50.828;4.416;2023-08-20T12:48:06;45.70;54.60
19880;DHT22;10102;50.828;4.416;2023-08-20T12:50:33;45.20;55.40
19880;DHT22;10102;50.828;4.416;2023-08-20T12:52:59;47.20;53.00
19880;DHT22;10102;50.828;4.416;2023-08-20T12:55:25;48.70;51.00
19880;DHT22;10102;50.828;4.416;2023-08-20T12:57:57;49.30;50.80
19880;DHT22;10102;50.828;4.416;2023-08-20T13:00:25;50.20;49.50
19880;DHT22;10102;50.828;4.416;2023-08-20T13:02:55;49.00;49.90
19880;DHT22;10102;50.828;4.416;2023-08-20T13:05:26;49.20;51.10
19880;DHT22;10102;50.828;4.416;2023-08-20T13:07:53;47.00;49.90
19880;DHT22;10102;50.828;4.416;2023-08-20T13:10:19;44.60;54.00
19880;DHT22;10102;50.828;4.416;2023-08-20T13:12:51;45.80;53.20
19880;DHT22;10102;50.828;4.416;2023-08-20T13:15:20;46.70;52.70
19880;DHT22;10102;50.828;4.416;2023-08-20T13:17:48;47.60;52.90
19880;DHT22;10102;50.828;4.416;2023-08-20T13:20:14;47.40;53.00
19880;DHT22;10102;50.828;4.416;2023-08-20T13:22:41;49.60;50.60
19880;DHT22;10102;50.828;4.416;2023-08-20T13:25:07;52.40;48.40
19880;DHT22;10102;50.828;4.416;2023-08-20T13:27:33;51.90;47.30
19880;DHT22;10102;50.828;4.416;2023-08-20T13:29:59;50.20;48.50
19880;DHT22;10102;50.828;4.416;2023-08-20T13:32:25;49.80;49.70
19880;DHT22;10102;50.828;4.416;2023-08-20T13:34:51;48.00;51.10
19880;DHT22;10102;50.828;4.416;2023-08-20T13:37:17;46.90;52.10
19880;DHT22;10102;50.828;4.416;2023-08-20T13:39:43;45.00;54.80
19880;DHT22;10102;50.828;4.416;2023-08-20T13:42:09;43.70;56.00
19880;DHT22;10102;50.828;4.416;2023-08-20T13:44:35;42.40;59.10
19880;DHT22;10102;50.828;4.416;2023-08-20T13:47:01;42.40;59.60
19880;DHT22;10102;50.828;4.416;2023-08-20T13:49:27;43.80;57.90
19880;DHT22;10102;50.828;4.416;2023-08-20T13:51:53;46.80;54.00
19880;DHT22;10102;50.828;4.416;2023-08-20T13:54:18;49.00;51.70
19880;DHT22;10102;50.828;4.416;2023-08-20T13:56:44;47.80;51.80
19880;DHT22;10102;50.828;4.416;2023-08-20T13:59:10;46.20;53.60
19880;DHT22;10102;50.828;4.416;2023-08-20T14:01:36;45.20;55.20
19880;DHT22;10102;50.828;4.416;2023-08-20T14:04:02;45.60;54.30
19880;DHT22;10102;50.828;4.416;2023-08-20T14:06:29;47.60;52.90
19880;DHT22;10102;50.828;4.416;2023-08-20T14:08:54;49.50;50.50
19880;DHT22;10102;50.828;4.416;2023-08-20T14:11:20;51.50;49.20
19880;DHT22;10102;50.828;4.416;2023-08-20T14:13:47;52.50;47.50
19880;DHT22;10102;50.828;4.416;2023-08-20T14:16:14;52.40;47.00
19880;DHT22;10102;50.828;4.416;2023-08-20T14:18:40;50.90;48.50
19880;DHT22;10102;50.828;4.416;2023-08-20T14:21:06;52.40;46.90
19880;DHT22;10102;50.828;4.416;2023-08-20T14:23:32;53.70;45.90
19880;DHT22;10102;50.828;4.416;2023-08-20T14:25:58;53.30;45.50
19880;DHT22;10102;50.828;4.416;2023-08-20T14:28:25;51.40;46.60
19880;DHT22;10102;50.828;4.416;2023-08-20T14:30:51;50.00;48.20
19880;DHT22;10102;50.828;4.416;2023-08-20T14:33:19;49.10;49.80
19880;DHT22;10102;50.828;4.416;2023-08-20T14:35:46;47.30;50.70
19880;DHT22;10102;50.828;4.416;2023-08-20T14:38:12;48.10;51.10
19880;DHT22;10102;50.828;4.416;2023-08-20T14:40:40;47.90;50.50
19880;DHT22;10102;50.828;4.416;2023-08-20T14:43:07;45.30;52.50
19880;DHT22;10102;50.828;4.416;2023-08-20T14:45:32;43.70;54.40
19880;DHT22;10102;50.828;4.416;2023-08-20T14:47:58;43.00;56.00
19880;DHT22;10102;50.828;4.416;2023-08-20T14:50:24;43.70;55.20
19880;DHT22;10102;50.828;4.416;2023-08-20T14:52:50;45.70;53.60
19880;DHT22;10102;50.828;4.416;2023-08-20T14:55:21;48.30;51.30
19880;DHT22;10102;50.828;4.416;2023-08-20T14:57:47;50.40;48.50
19880;DHT22;10102;50.828;4.416;2023-08-20T15:00:14;51.70;47.40
19880;DHT22;10102;50.828;4.416;2023-08-20T15:02:46;52.40;46.10
19880;DHT22;10102;50.828;4.416;2023-08-20T15:05:12;53.20;45.40
19880;DHT22;10102;50.828;4.416;2023-08-20T15:07:39;53.00;45.00
19880;DHT22;10102;50.828;4.416;2023-08-20T15:10:05;51.80;49.60
19880;DHT22;10102;50.828;4.416;2023-08-20T15:12:35;51.80;46.30
19880;DHT22;10102;50.828;4.416;2023-08-20T15:15:05;49.60;47.70
19880;DHT22;10102;50.828;4.416;2023-08-20T15:17:32;47.00;50.60
19880;DHT22;10102;50.828;4.416;2023-08-20T15:19:58;44.40;53.10
19880;DHT22;10102;50.828;4.416;2023-08-20T15:22:24;42.30;56.50
19880;DHT22;10102;50.828;4.416;2023-08-20T15:24:50;40.90;58.40
19880;DHT22;10102;50.828;4.416;2023-08-20T15:27:19;39.70;60.20
19880;DHT22;10102;50.828;4.416;2023-08-20T15:29:45;38.70;62.20
19880;DHT22;10102;50.828;4.416;2023-08-20T15:32:11;37.80;63.60
19880;DHT22;10102;50.828;4.416;2023-08-20T15:34:37;37.20;65.00
19880;DHT22;10102;50.828;4.416;2023-08-20T15:37:03;36.80;66.50
19880;DHT22;10102;50.828;4.416;2023-08-20T15:39:32;36.60;67.20
19880;DHT22;10102;50.828;4.416;2023-08-20T15:41:59;37.40;66.10
19880;DHT22;10102;50.828;4.416;2023-08-20T15:44:25;40.30;61.30